Smithfield, Virginia
Current Conditions -  °F | °C
As of 10:58 PM on Saturday 24 Jan 2015 (Local Time) from KFAF Reporting Station
Clear Clear  
Wind Chill: 33°   Ceiling: Unl
Heat Index: 38°   Visibility: 10mi
Dew Point: 30°   Wind: 7mph
Humidity: 73%   Direction: 300°WNW
Pressure: 29.7"   Gusts: NA
Location:  36.98°N, 76.62°W
Report Text: KFAF 250358Z AUTO 30006KT 10SM CLR 03/M01 A2970 RMK AO2 SLP061 T00331011 $
Loading
Personal Weather Stations






























Interactive Weather Map New forecast layout! Learn more

10-Day Weather Forecast

Advertisements
Track Severe Weather on mobile